sensor_id;sensor_type;location;lat;lon;timestamp;pressure;altitude;pressure_sealevel;temperature;humidity
68376;BME280;55318;52.068;5.188;2023-04-29T00:00:21;101519.0;;;12.0;92.86
68376;BME280;55318;52.068;5.188;2023-04-29T00:03:34;101524.0;;;12.17;92.0
68376;BME280;55318;52.068;5.188;2023-04-29T00:05:11;101527.0;;;12.1;92.23
68376;BME280;55318;52.068;5.188;2023-04-29T00:06:47;101528.0;;;11.82;94.3
68376;BME280;55318;52.068;5.188;2023-04-29T00:08:23;101525.0;;;11.96;92.98
68376;BME280;55318;52.068;5.188;2023-04-29T00:11:35;101533.0;;;12.08;92.38
68376;BME280;55318;52.068;5.188;2023-04-29T00:13:11;101531.0;;;12.03;92.72
68376;BME280;55318;52.068;5.188;2023-04-29T00:14:47;101535.0;;;12.04;92.64
68376;BME280;55318;52.068;5.188;2023-04-29T00:18:00;101532.0;;;11.99;92.65
68376;BME280;55318;52.068;5.188;2023-04-29T00:19:36;101538.0;;;11.74;93.77
68376;BME280;55318;52.068;5.188;2023-04-29T00:21:12;101539.0;;;11.84;94.02
68376;BME280;55318;52.068;5.188;2023-04-29T00:24:24;101535.0;;;11.83;93.23
68376;BME280;55318;52.068;5.188;2023-04-29T00:26:00;101543.0;;;11.82;93.34
68376;BME280;55318;52.068;5.188;2023-04-29T00:27:36;101544.0;;;11.88;93.33
68376;BME280;55318;52.068;5.188;2023-04-29T00:30:49;101546.0;;;11.75;93.61
68376;BME280;55318;52.068;5.188;2023-04-29T00:32:25;101543.0;;;11.99;92.97
68376;BME280;55318;52.068;5.188;2023-04-29T00:34:01;101553.0;;;11.95;92.8
68376;BME280;55318;52.068;5.188;2023-04-29T00:35:37;101556.0;;;11.8;93.32
68376;BME280;55318;52.068;5.188;2023-04-29T00:38:49;101557.0;;;11.73;93.79
68376;BME280;55318;52.068;5.188;2023-04-29T00:40:26;101553.0;;;11.73;93.65
68376;BME280;55318;52.068;5.188;2023-04-29T00:42:02;101556.0;;;11.84;93.03
68376;BME280;55318;52.068;5.188;2023-04-29T00:45:15;101555.0;;;11.95;91.9
68376;BME280;55318;52.068;5.188;2023-04-29T00:46:51;101560.0;;;11.9;92.01
68376;BME280;55318;52.068;5.188;2023-04-29T00:48:27;101558.0;;;11.9;92.04
68376;BME280;55318;52.068;5.188;2023-04-29T00:51:43;101558.0;;;11.79;92.14
68376;BME280;55318;52.068;5.188;2023-04-29T00:53:20;101558.0;;;11.95;91.5
68376;BME280;55318;52.068;5.188;2023-04-29T00:54:55;101565.0;;;11.79;91.61
68376;BME280;55318;52.068;5.188;2023-04-29T00:56:34;101566.0;;;11.81;91.51
68376;BME280;55318;52.068;5.188;2023-04-29T00:59:47;101561.0;;;11.91;91.25
68376;BME280;55318;52.068;5.188;2023-04-29T01:01:24;101563.0;;;11.95;90.78
68376;BME280;55318;52.068;5.188;2023-04-29T01:03:00;101563.0;;;12.05;90.25
68376;BME280;55318;52.068;5.188;2023-04-29T01:06:23;101565.0;;;11.9;90.79
68376;BME280;55318;52.068;5.188;2023-04-29T01:08:20;101569.0;;;11.66;91.81
68376;BME280;55318;52.068;5.188;2023-04-29T01:10:06;101573.0;;;11.77;92.12
68376;BME280;55318;52.068;5.188;2023-04-29T01:11:53;101577.0;;;11.64;92.4
68376;BME280;55318;52.068;5.188;2023-04-29T01:13:42;101578.0;;;11.89;91.04
68376;BME280;55318;52.068;5.188;2023-04-29T01:15:22;101585.0;;;12.0;90.29
68376;BME280;55318;52.068;5.188;2023-04-29T01:18:49;101585.0;;;11.87;90.44
68376;BME280;55318;52.068;5.188;2023-04-29T01:20:29;101586.0;;;11.66;90.45
68376;BME280;55318;52.068;5.188;2023-04-29T01:22:05;101588.0;;;11.88;90.2
68376;BME280;55318;52.068;5.188;2023-04-29T01:23:41;101589.0;;;11.96;90.08
68376;BME280;55318;52.068;5.188;2023-04-29T01:26:55;101590.0;;;11.88;89.96
68376;BME280;55318;52.068;5.188;2023-04-29T01:28:42;101588.0;;;11.89;90.16
68376;BME280;55318;52.068;5.188;2023-04-29T01:30:33;101592.0;;;11.95;89.83
68376;BME280;55318;52.068;5.188;2023-04-29T01:32:17;101592.0;;;11.89;89.66
68376;BME280;55318;52.068;5.188;2023-04-29T01:35:52;101592.0;;;11.79;89.93
68376;BME280;55318;52.068;5.188;2023-04-29T01:37:41;101594.0;;;11.7;90.57
68376;BME280;55318;52.068;5.188;2023-04-29T01:39:32;101598.0;;;11.86;89.58
68376;BME280;55318;52.068;5.188;2023-04-29T01:41:14;101599.0;;;11.68;90.53
68376;BME280;55318;52.068;5.188;2023-04-29T01:42:57;101600.0;;;11.99;89.1
68376;BME280;55318;52.068;5.188;2023-04-29T01:46:16;101600.0;;;11.87;89.62
68376;BME280;55318;52.068;5.188;2023-04-29T01:47:52;101605.0;;;11.82;89.9
68376;BME280;55318;52.068;5.188;2023-04-29T01:49:29;101606.0;;;11.68;91.26
68376;BME280;55318;52.068;5.188;2023-04-29T01:51:05;101598.0;;;11.7;90.46
68376;BME280;55318;52.068;5.188;2023-04-29T01:54:17;101601.0;;;11.76;90.4
68376;BME280;55318;52.068;5.188;2023-04-29T01:55:53;101607.0;;;11.67;90.95
68376;BME280;55318;52.068;5.188;2023-04-29T01:57:30;101605.0;;;11.76;90.81
68376;BME280;55318;52.068;5.188;2023-04-29T02:00:42;101602.0;;;11.83;90.32
68376;BME280;55318;52.068;5.188;2023-04-29T02:02:18;101605.0;;;11.74;91.0
68376;BME280;55318;52.068;5.188;2023-04-29T02:03:54;101603.0;;;11.8;90.78
68376;BME280;55318;52.068;5.188;2023-04-29T02:07:06;101609.0;;;11.63;91.53
68376;BME280;55318;52.068;5.188;2023-04-29T02:08:42;101602.0;;;11.81;90.7
68376;BME280;55318;52.068;5.188;2023-04-29T02:10:19;101611.0;;;11.76;90.93
68376;BME280;55318;52.068;5.188;2023-04-29T02:11:55;101614.0;;;11.78;90.93
68376;BME280;55318;52.068;5.188;2023-04-29T02:15:08;101615.0;;;11.68;90.58
68376;BME280;55318;52.068;5.188;2023-04-29T02:16:44;101612.0;;;11.79;90.59
68376;BME280;55318;52.068;5.188;2023-04-29T02:18:19;101612.0;;;11.78;90.49
68376;BME280;55318;52.068;5.188;2023-04-29T02:21:30;101621.0;;;11.57;90.65
68376;BME280;55318;52.068;5.188;2023-04-29T02:23:06;101626.0;;;11.81;90.08
68376;BME280;55318;52.068;5.188;2023-04-29T02:24:43;101626.0;;;11.88;89.88
68376;BME280;55318;52.068;5.188;2023-04-29T02:27:55;101632.0;;;11.64;90.83
68376;BME280;55318;52.068;5.188;2023-04-29T02:29:32;101630.0;;;11.89;89.86
68376;BME280;55318;52.068;5.188;2023-04-29T02:31:08;101637.0;;;11.81;90.1
68376;BME280;55318;52.068;5.188;2023-04-29T02:32:44;101637.0;;;11.88;89.42
68376;BME280;55318;52.068;5.188;2023-04-29T02:35:56;101635.0;;;11.91;89.15
68376;BME280;55318;52.068;5.188;2023-04-29T02:37:32;101638.0;;;11.89;88.83
68376;BME280;55318;52.068;5.188;2023-04-29T02:39:08;101649.0;;;11.72;89.54
68376;BME280;55318;52.068;5.188;2023-04-29T02:42:21;101648.0;;;11.61;89.53
68376;BME280;55318;52.068;5.188;2023-04-29T02:43:57;101655.0;;;11.81;89.48
68376;BME280;55318;52.068;5.188;2023-04-29T02:45:34;101655.0;;;11.71;90.16
68376;BME280;55318;52.068;5.188;2023-04-29T02:48:46;101655.0;;;11.88;89.05
68376;BME280;55318;52.068;5.188;2023-04-29T02:50:22;101656.0;;;11.97;88.67
68376;BME280;55318;52.068;5.188;2023-04-29T02:51:58;101658.0;;;11.92;88.41
68376;BME280;55318;52.068;5.188;2023-04-29T02:55:10;101660.0;;;11.95;88.54
68376;BME280;55318;52.068;5.188;2023-04-29T02:56:46;101662.0;;;11.78;88.55
68376;BME280;55318;52.068;5.188;2023-04-29T02:58:23;101668.0;;;11.99;87.77
68376;BME280;55318;52.068;5.188;2023-04-29T02:59:59;101672.0;;;11.91;88.25
68376;BME280;55318;52.068;5.188;2023-04-29T03:03:11;101672.0;;;11.83;88.28
68376;BME280;55318;52.068;5.188;2023-04-29T03:04:48;101673.0;;;11.8;88.93
68376;BME280;55318;52.068;5.188;2023-04-29T03:06:24;101680.0;;;11.89;89.07
68376;BME280;55318;52.068;5.188;2023-04-29T03:09:36;101682.0;;;11.82;89.04
68376;BME280;55318;52.068;5.188;2023-04-29T03:11:12;101681.0;;;11.94;88.74
68376;BME280;55318;52.068;5.188;2023-04-29T03:12:49;101685.0;;;11.78;89.62
68376;BME280;55318;52.068;5.188;2023-04-29T03:16:01;101689.0;;;11.87;89.31
68376;BME280;55318;52.068;5.188;2023-04-29T03:17:37;101688.0;;;11.88;89.2
68376;BME280;55318;52.068;5.188;2023-04-29T03:19:13;101687.0;;;11.89;89.16
68376;BME280;55318;52.068;5.188;2023-04-29T03:22:25;101693.0;;;11.89;89.19
68376;BME280;55318;52.068;5.188;2023-04-29T03:24:01;101691.0;;;11.84;89.66
68376;BME280;55318;52.068;5.188;2023-04-29T03:25:37;101690.0;;;11.74;90.55
68376;BME280;55318;52.068;5.188;2023-04-29T03:27:14;101690.0;;;11.93;89.74
68376;BME280;55318;52.068;5.188;2023-04-29T03:30:26;101693.0;;;11.95;89.01
68376;BME280;55318;52.068;5.188;2023-04-29T03:32:02;101695.0;;;11.87;89.61
68376;BME280;55318;52.068;5.188;2023-04-29T03:33:38;101697.0;;;11.74;90.25
68376;BME280;55318;52.068;5.188;2023-04-29T03:36:50;101695.0;;;11.81;89.79
68376;BME280;55318;52.068;5.188;2023-04-29T03:38:26;101696.0;;;11.89;89.66
68376;BME280;55318;52.068;5.188;2023-04-29T03:40:03;101696.0;;;11.79;89.93
68376;BME280;55318;52.068;5.188;2023-04-29T03:43:16;101693.0;;;11.67;90.62
68376;BME280;55318;52.068;5.188;2023-04-29T03:44:52;101697.0;;;11.6;91.71
68376;BME280;55318;52.068;5.188;2023-04-29T03:46:28;101695.0;;;11.84;90.31
68376;BME280;55318;52.068;5.188;2023-04-29T03:48:05;101697.0;;;11.75;90.15
68376;BME280;55318;52.068;5.188;2023-04-29T03:51:17;101698.0;;;11.84;89.75
68376;BME280;55318;52.068;5.188;2023-04-29T03:52:53;101703.0;;;11.83;89.78
68376;BME280;55318;52.068;5.188;2023-04-29T03:54:30;101703.0;;;11.83;89.69
68376;BME280;55318;52.068;5.188;2023-04-29T03:57:42;101706.0;;;11.64;90.38
68376;BME280;55318;52.068;5.188;2023-04-29T03:59:18;101708.0;;;11.49;91.03
68376;BME280;55318;52.068;5.188;2023-04-29T04:00:54;101710.0;;;11.67;90.41
68376;BME280;55318;52.068;5.188;2023-04-29T04:04:06;101709.0;;;11.86;89.8
68376;BME280;55318;52.068;5.188;2023-04-29T04:05:42;101711.0;;;11.74;90.62
68376;BME280;55318;52.068;5.188;2023-04-29T04:07:18;101711.0;;;11.74;90.22
68376;BME280;55318;52.068;5.188;2023-04-29T04:10:31;101714.0;;;11.8;90.4
68376;BME280;55318;52.068;5.188;2023-04-29T04:12:08;101712.0;;;11.86;89.82
68376;BME280;55318;52.068;5.188;2023-04-29T04:13:44;101718.0;;;11.63;90.79
68376;BME280;55318;52.068;5.188;2023-04-29T04:15:20;101720.0;;;11.6;90.85
68376;BME280;55318;52.068;5.188;2023-04-29T04:18:32;101721.0;;;11.86;89.79
68376;BME280;55318;52.068;5.188;2023-04-29T04:20:09;101727.0;;;11.88;89.42
68376;BME280;55318;52.068;5.188;2023-04-29T04:21:46;101726.0;;;11.72;90.8
68376;BME280;55318;52.068;5.188;2023-04-29T04:24:58;101731.0;;;11.89;90.33
68376;BME280;55318;52.068;5.188;2023-04-29T04:26:34;101731.0;;;11.73;90.51
68376;BME280;55318;52.068;5.188;2023-04-29T04:28:10;101733.0;;;11.57;90.59
68376;BME280;55318;52.068;5.188;2023-04-29T04:31:22;101740.0;;;11.86;89.5
68376;BME280;55318;52.068;5.188;2023-04-29T04:32:59;101739.0;;;11.87;89.72
68376;BME280;55318;52.068;5.188;2023-04-29T04:34:36;101745.0;;;11.64;90.05
68376;BME280;55318;52.068;5.188;2023-04-29T04:36:12;101747.0;;;11.85;90.06
68376;BME280;55318;52.068;5.188;2023-04-29T04:39:24;101752.0;;;11.89;89.98
68376;BME280;55318;52.068;5.188;2023-04-29T04:41:00;101753.0;;;11.72;90.5
68376;BME280;55318;52.068;5.188;2023-04-29T04:42:36;101756.0;;;11.71;90.78
68376;BME280;55318;52.068;5.188;2023-04-29T04:45:48;101759.0;;;11.77;90.74
68376;BME280;55318;52.068;5.188;2023-04-29T04:47:24;101763.0;;;11.73;90.44
68376;BME280;55318;52.068;5.188;2023-04-29T04:49:01;101769.0;;;11.83;90.01
68376;BME280;55318;52.068;5.188;2023-04-29T04:52:13;101773.0;;;11.65;90.6
68376;BME280;55318;52.068;5.188;2023-04-29T04:53:49;101772.0;;;11.64;91.47
68376;BME280;55318;52.068;5.188;2023-04-29T04:55:25;101774.0;;;11.75;90.63
68376;BME280;55318;52.068;5.188;2023-04-29T04:58:37;101774.0;;;11.86;90.33
68376;BME280;55318;52.068;5.188;2023-04-29T05:00:15;101775.0;;;11.93;89.61
68376;BME280;55318;52.068;5.188;2023-04-29T05:01:51;101780.0;;;11.97;88.87
68376;BME280;55318;52.068;5.188;2023-04-29T05:03:28;101781.0;;;12.01;88.55
68376;BME280;55318;52.068;5.188;2023-04-29T05:06:40;101780.0;;;11.87;88.48
68376;BME280;55318;52.068;5.188;2023-04-29T05:08:16;101780.0;;;11.7;89.48
68376;BME280;55318;52.068;5.188;2023-04-29T05:09:52;101788.0;;;11.79;89.79
68376;BME280;55318;52.068;5.188;2023-04-29T05:13:04;101792.0;;;11.8;88.54
68376;BME280;55318;52.068;5.188;2023-04-29T05:14:40;101789.0;;;11.78;89.77
68376;BME280;55318;52.068;5.188;2023-04-29T05:16:17;101788.0;;;12.02;88.21
68376;BME280;55318;52.068;5.188;2023-04-29T05:19:29;101786.0;;;12.04;87.33
68376;BME280;55318;52.068;5.188;2023-04-29T05:21:05;101791.0;;;11.88;88.46
68376;BME280;55318;52.068;5.188;2023-04-29T05:22:41;101796.0;;;11.89;87.64
68376;BME280;55318;52.068;5.188;2023-04-29T05:24:17;101799.0;;;12.02;87.13
68376;BME280;55318;52.068;5.188;2023-04-29T05:27:29;101802.0;;;11.96;88.04
68376;BME280;55318;52.068;5.188;2023-04-29T05:29:05;101801.0;;;11.95;87.58
68376;BME280;55318;52.068;5.188;2023-04-29T05:30:42;101809.0;;;11.8;90.08
68376;BME280;55318;52.068;5.188;2023-04-29T05:33:54;101808.0;;;11.97;89.6
68376;BME280;55318;52.068;5.188;2023-04-29T05:35:30;101814.0;;;11.92;89.63
68376;BME280;55318;52.068;5.188;2023-04-29T05:37:06;101810.0;;;12.07;88.84
68376;BME280;55318;52.068;5.188;2023-04-29T05:40:19;101816.0;;;12.08;89.36
68376;BME280;55318;52.068;5.188;2023-04-29T05:41:55;101819.0;;;12.29;88.15
68376;BME280;55318;52.068;5.188;2023-04-29T05:43:32;101821.0;;;12.21;88.76
68376;BME280;55318;52.068;5.188;2023-04-29T05:46:45;101824.0;;;12.18;89.55
68376;BME280;55318;52.068;5.188;2023-04-29T05:48:21;101826.0;;;12.03;90.17
68376;BME280;55318;52.068;5.188;2023-04-29T05:49:57;101837.0;;;12.12;90.05
68376;BME280;55318;52.068;5.188;2023-04-29T05:51:34;101836.0;;;12.22;89.46
68376;BME280;55318;52.068;5.188;2023-04-29T05:54:46;101836.0;;;12.31;88.61
68376;BME280;55318;52.068;5.188;2023-04-29T05:56:23;101837.0;;;12.3;88.73
68376;BME280;55318;52.068;5.188;2023-04-29T05:57:59;101839.0;;;12.27;89.23
68376;BME280;55318;52.068;5.188;2023-04-29T06:01:11;101844.0;;;12.26;89.05
68376;BME280;55318;52.068;5.188;2023-04-29T06:02:47;101841.0;;;12.29;88.85
68376;BME280;55318;52.068;5.188;2023-04-29T06:04:23;101849.0;;;12.17;89.9
68376;BME280;55318;52.068;5.188;2023-04-29T06:07:38;101852.0;;;12.27;89.29
68376;BME280;55318;52.068;5.188;2023-04-29T06:09:15;101852.0;;;12.28;88.81
68376;BME280;55318;52.068;5.188;2023-04-29T06:10:51;101859.0;;;12.24;89.05
68376;BME280;55318;52.068;5.188;2023-04-29T06:12:27;101860.0;;;12.2;89.75
68376;BME280;55318;52.068;5.188;2023-04-29T06:15:39;101861.0;;;12.26;89.7
68376;BME280;55318;52.068;5.188;2023-04-29T06:17:15;101864.0;;;12.48;89.22
68376;BME280;55318;52.068;5.188;2023-04-29T06:18:51;101869.0;;;12.26;89.36
68376;BME280;55318;52.068;5.188;2023-04-29T06:22:04;101870.0;;;12.34;89.96
68376;BME280;55318;52.068;5.188;2023-04-29T06:23:40;101878.0;;;12.5;88.99
68376;BME280;55318;52.068;5.188;2023-04-29T06:25:16;101876.0;;;12.6;89.31
68376;BME280;55318;52.068;5.188;2023-04-29T06:28:28;101880.0;;;12.68;88.68
68376;BME280;55318;52.068;5.188;2023-04-29T06:30:05;101884.0;;;12.59;88.5
68376;BME280;55318;52.068;5.188;2023-04-29T06:31:42;101886.0;;;12.63;88.65
68376;BME280;55318;52.068;5.188;2023-04-29T06:33:18;101890.0;;;12.71;88.33
68376;BME280;55318;52.068;5.188;2023-04-29T06:36:31;101893.0;;;12.67;88.38
68376;BME280;55318;52.068;5.188;2023-04-29T06:38:07;101898.0;;;12.77;88.08
68376;BME280;55318;52.068;5.188;2023-04-29T06:39:43;101905.0;;;12.84;87.09
68376;BME280;55318;52.068;5.188;2023-04-29T06:42:55;101903.0;;;12.75;87.62
68376;BME280;55318;52.068;5.188;2023-04-29T06:44:31;101910.0;;;12.68;87.54
68376;BME280;55318;52.068;5.188;2023-04-29T06:46:08;101913.0;;;12.8;87.14
68376;BME280;55318;52.068;5.188;2023-04-29T06:49:21;101912.0;;;12.77;86.49
68376;BME280;55318;52.068;5.188;2023-04-29T06:50:57;101914.0;;;12.75;87.11
68376;BME280;55318;52.068;5.188;2023-04-29T06:52:33;101916.0;;;12.74;86.92
68376;BME280;55318;52.068;5.188;2023-04-29T06:55:45;101920.0;;;12.56;87.91
68376;BME280;55318;52.068;5.188;2023-04-29T06:57:21;101925.0;;;12.81;86.77
68376;BME280;55318;52.068;5.188;2023-04-29T06:58:57;101926.0;;;12.57;88.38
68376;BME280;55318;52.068;5.188;2023-04-29T07:00:34;101931.0;;;12.58;87.78
68376;BME280;55318;52.068;5.188;2023-04-29T07:03:46;101932.0;;;12.78;86.75
68376;BME280;55318;52.068;5.188;2023-04-29T07:05:22;101935.0;;;12.8;85.3
68376;BME280;55318;52.068;5.188;2023-04-29T07:06:58;101938.0;;;12.57;85.67
68376;BME280;55318;52.068;5.188;2023-04-29T07:10:10;101939.0;;;12.79;85.43
68376;BME280;55318;52.068;5.188;2023-04-29T07:11:46;101946.0;;;12.88;86.37
68376;BME280;55318;52.068;5.188;2023-04-29T07:13:23;101948.0;;;12.98;86.51
68376;BME280;55318;52.068;5.188;2023-04-29T07:16:36;101956.0;;;13.08;86.28
68376;BME280;55318;52.068;5.188;2023-04-29T07:18:12;101964.0;;;13.49;85.47
68376;BME280;55318;52.068;5.188;2023-04-29T07:19:48;101967.0;;;13.74;83.88
68376;BME280;55318;52.068;5.188;2023-04-29T07:23:01;101965.0;;;13.86;82.39
68376;BME280;55318;52.068;5.188;2023-04-29T07:24:37;101964.0;;;14.11;81.03
68376;BME280;55318;52.068;5.188;2023-04-29T07:26:16;101960.0;;;14.43;82.22
68376;BME280;55318;52.068;5.188;2023-04-29T07:27:52;101965.0;;;14.48;79.2
68376;BME280;55318;52.068;5.188;2023-04-29T07:31:04;101976.0;;;14.73;77.89
68376;BME280;55318;52.068;5.188;2023-04-29T07:32:40;101976.0;;;14.64;77.19
68376;BME280;55318;52.068;5.188;2023-04-29T07:34:16;101974.0;;;14.58;76.44
68376;BME280;55318;52.068;5.188;2023-04-29T07:37:29;101987.0;;;14.35;77.94
68376;BME280;55318;52.068;5.188;2023-04-29T07:39:05;101988.0;;;14.35;77.87
68376;BME280;55318;52.068;5.188;2023-04-29T07:40:42;101989.0;;;14.36;77.16
68376;BME280;55318;52.068;5.188;2023-04-29T07:43:54;101990.0;;;14.23;77.8
68376;BME280;55318;52.068;5.188;2023-04-29T07:45:30;101988.0;;;14.15;78.11
68376;BME280;55318;52.068;5.188;2023-04-29T07:47:06;101997.0;;;13.96;78.69
68376;BME280;55318;52.068;5.188;2023-04-29T07:48:43;101995.0;;;13.55;80.56
68376;BME280;55318;52.068;5.188;2023-04-29T07:51:56;101995.0;;;13.51;81.63
68376;BME280;55318;52.068;5.188;2023-04-29T07:53:32;102001.0;;;13.6;80.7
68376;BME280;55318;52.068;5.188;2023-04-29T07:55:08;102002.0;;;13.44;81.92
68376;BME280;55318;52.068;5.188;2023-04-29T07:58:20;102005.0;;;13.53;82.4
68376;BME280;55318;52.068;5.188;2023-04-29T07:59:56;102010.0;;;13.68;81.47
68376;BME280;55318;52.068;5.188;2023-04-29T08:01:32;102009.0;;;13.85;80.55
68376;BME280;55318;52.068;5.188;2023-04-29T08:04:45;102011.0;;;13.98;80.03
68376;BME280;55318;52.068;5.188;2023-04-29T08:06:21;102017.0;;;14.05;80.12
68376;BME280;55318;52.068;5.188;2023-04-29T08:07:57;102012.0;;;14.21;78.73
68376;BME280;55318;52.068;5.188;2023-04-29T08:11:14;102018.0;;;14.31;78.48
68376;BME280;55318;52.068;5.188;2023-04-29T08:12:51;102015.0;;;14.36;78.52
68376;BME280;55318;52.068;5.188;2023-04-29T08:14:27;102018.0;;;14.43;76.86
68376;BME280;55318;52.068;5.188;2023-04-29T08:16:04;102021.0;;;14.53;75.97
68376;BME280;55318;52.068;5.188;2023-04-29T08:19:16;102026.0;;;14.58;76.41
68376;BME280;55318;52.068;5.188;2023-04-29T08:20:52;102030.0;;;14.46;76.56
68376;BME280;55318;52.068;5.188;2023-04-29T08:22:28;102028.0;;;14.15;77.05
68376;BME280;55318;52.068;5.188;2023-04-29T08:25:41;102026.0;;;14.14;77.36
68376;BME280;55318;52.068;5.188;2023-04-29T08:27:17;102022.0;;;13.95;78.45
68376;BME280;55318;52.068;5.188;2023-04-29T08:28:53;102022.0;;;14.32;80.08
68376;BME280;55318;52.068;5.188;2023-04-29T08:30:29;102018.0;;;14.58;78.02
68376;BME280;55318;52.068;5.188;2023-04-29T08:33:42;102014.0;;;14.92;78.64
68376;BME280;55318;52.068;5.188;2023-04-29T08:35:18;102015.0;;;14.81;76.09
68376;BME280;55318;52.068;5.188;2023-04-29T08:36:55;102025.0;;;14.59;73.52
68376;BME280;55318;52.068;5.188;2023-04-29T08:40:09;102019.0;;;14.92;74.25
68376;BME280;55318;52.068;5.188;2023-04-29T08:41:45;102025.0;;;14.99;74.14
68376;BME280;55318;52.068;5.188;2023-04-29T08:43:22;102019.0;;;14.77;76.34
68376;BME280;55318;52.068;5.188;2023-04-29T08:46:37;102022.0;;;14.86;76.62
68376;BME280;55318;52.068;5.188;2023-04-29T08:48:15;102030.0;;;14.93;76.58
68376;BME280;55318;52.068;5.188;2023-04-29T08:49:52;102030.0;;;14.92;74.47
68376;BME280;55318;52.068;5.188;2023-04-29T08:51:28;102038.0;;;15.01;73.75
68376;BME280;55318;52.068;5.188;2023-04-29T08:54:40;102035.0;;;15.24;74.55
68376;BME280;55318;52.068;5.188;2023-04-29T08:56:17;102037.0;;;15.59;74.56
68376;BME280;55318;52.068;5.188;2023-04-29T09:01:08;102040.0;;;16.0;72.67
68376;BME280;55318;52.068;5.188;2023-04-29T09:02:48;102039.0;;;16.3;71.61
68376;BME280;55318;52.068;5.188;2023-04-29T09:04:36;102041.0;;;16.46;68.11
68376;BME280;55318;52.068;5.188;2023-04-29T09:06:16;102046.0;;;16.72;70.49
68376;BME280;55318;52.068;5.188;2023-04-29T09:09:32;102050.0;;;16.7;67.97
68376;BME280;55318;52.068;5.188;2023-04-29T09:11:08;102051.0;;;16.46;68.27
68376;BME280;55318;52.068;5.188;2023-04-29T09:12:45;102051.0;;;15.89;69.47
68376;BME280;55318;52.068;5.188;2023-04-29T09:15:58;102051.0;;;15.97;68.73
68376;BME280;55318;52.068;5.188;2023-04-29T09:17:38;102056.0;;;15.85;68.44
68376;BME280;55318;52.068;5.188;2023-04-29T09:19:28;102056.0;;;15.7;70.8
68376;BME280;55318;52.068;5.188;2023-04-29T09:21:12;102055.0;;;16.02;71.88
68376;BME280;55318;52.068;5.188;2023-04-29T09:22:49;102057.0;;;16.52;72.58
68376;BME280;55318;52.068;5.188;2023-04-29T09:26:05;102059.0;;;16.62;68.23
68376;BME280;55318;52.068;5.188;2023-04-29T09:27:41;102055.0;;;16.91;68.48
68376;BME280;55318;52.068;5.188;2023-04-29T09:29:17;102061.0;;;16.79;64.97
68376;BME280;55318;52.068;5.188;2023-04-29T09:32:29;102062.0;;;16.64;66.14
68376;BME280;55318;52.068;5.188;2023-04-29T09:34:05;102064.0;;;16.25;63.98
68376;BME280;55318;52.068;5.188;2023-04-29T09:35:42;102068.0;;;16.18;66.49
68376;BME280;55318;52.068;5.188;2023-04-29T09:39:00;102069.0;;;16.16;65.97
68376;BME280;55318;52.068;5.188;2023-04-29T09:40:37;102067.0;;;15.92;66.47
68376;BME280;55318;52.068;5.188;2023-04-29T09:42:13;102069.0;;;15.9;67.1
68376;BME280;55318;52.068;5.188;2023-04-29T09:44:02;102074.0;;;15.89;68.39
68376;BME280;55318;52.068;5.188;2023-04-29T09:47:16;102076.0;;;16.14;67.75
68376;BME280;55318;52.068;5.188;2023-04-29T09:48:52;102070.0;;;16.54;68.34
68376;BME280;55318;52.068;5.188;2023-04-29T09:50:28;102076.0;;;16.86;67.94
68376;BME280;55318;52.068;5.188;2023-04-29T09:52:05;102077.0;;;16.73;64.37
68376;BME280;55318;52.068;5.188;2023-04-29T09:55:18;102071.0;;;17.16;66.47
68376;BME280;55318;52.068;5.188;2023-04-29T09:56:55;102070.0;;;17.13;63.21
68376;BME280;55318;52.068;5.188;2023-04-29T09:58:33;102072.0;;;17.36;63.35
68376;BME280;55318;52.068;5.188;2023-04-29T10:01:48;102073.0;;;17.61;62.08
68376;BME280;55318;52.068;5.188;2023-04-29T10:03:26;102076.0;;;17.96;63.99
68376;BME280;55318;52.068;5.188;2023-04-29T10:05:07;102080.0;;;18.06;59.23
68376;BME280;55318;52.068;5.188;2023-04-29T10:06:45;102072.0;;;17.7;62.13
68376;BME280;55318;52.068;5.188;2023-04-29T10:10:03;102073.0;;;17.61;62.05
68376;BME280;55318;52.068;5.188;2023-04-29T10:11:41;102067.0;;;17.86;61.75
68376;BME280;55318;52.068;5.188;2023-04-29T10:13:18;102075.0;;;18.02;62.13
68376;BME280;55318;52.068;5.188;2023-04-29T10:16:45;102072.0;;;17.87;59.13
68376;BME280;55318;52.068;5.188;2023-04-29T10:18:25;102072.0;;;17.62;58.06
68376;BME280;55318;52.068;5.188;2023-04-29T10:20:05;102076.0;;;17.73;60.79
68376;BME280;55318;52.068;5.188;2023-04-29T10:21:47;102077.0;;;17.68;61.68
68376;BME280;55318;52.068;5.188;2023-04-29T10:25:04;102078.0;;;17.73;60.08
68376;BME280;55318;52.068;5.188;2023-04-29T10:26:42;102081.0;;;17.68;59.21
68376;BME280;55318;52.068;5.188;2023-04-29T10:28:20;102085.0;;;18.0;61.21
68376;BME280;55318;52.068;5.188;2023-04-29T10:29:59;102084.0;;;17.86;62.01
68376;BME280;55318;52.068;5.188;2023-04-29T10:33:16;102088.0;;;17.8;60.58
68376;BME280;55318;52.068;5.188;2023-04-29T10:34:55;102089.0;;;18.02;58.33
68376;BME280;55318;52.068;5.188;2023-04-29T10:36:32;102087.0;;;17.96;55.8
68376;BME280;55318;52.068;5.188;2023-04-29T10:38:18;102090.0;;;17.86;56.55
68376;BME280;55318;52.068;5.188;2023-04-29T10:41:47;102095.0;;;17.57;60.91
68376;BME280;55318;52.068;5.188;2023-04-29T10:43:26;102094.0;;;17.45;58.82
68376;BME280;55318;52.068;5.188;2023-04-29T10:45:19;102092.0;;;17.7;61.58
68376;BME280;55318;52.068;5.188;2023-04-29T10:47:17;102088.0;;;17.91;62.89
68376;BME280;55318;52.068;5.188;2023-04-29T10:48:56;102095.0;;;17.84;60.03
68376;BME280;55318;52.068;5.188;2023-04-29T10:52:50;102091.0;;;17.47;59.32
68376;BME280;55318;52.068;5.188;2023-04-29T10:54:27;102091.0;;;17.7;59.93
68376;BME280;55318;52.068;5.188;2023-04-29T10:56:07;102088.0;;;17.45;58.43
68376;BME280;55318;52.068;5.188;2023-04-29T10:57:44;102090.0;;;17.39;60.7
68376;BME280;55318;52.068;5.188;2023-04-29T10:59:21;102088.0;;;17.66;60.35
68376;BME280;55318;52.068;5.188;2023-04-29T11:01:39;102091.0;;;17.8;58.56
68376;BME280;55318;52.068;5.188;2023-04-29T11:03:45;102088.0;;;18.2;60.41
68376;BME280;55318;52.068;5.188;2023-04-29T11:05:29;102089.0;;;18.25;56.49
68376;BME280;55318;52.068;5.188;2023-04-29T11:08:42;102087.0;;;18.41;59.25